Time;durP1;ratioP1;P1;durP2;ratioP2;P2;SDS_P1;SDS_P2;PMS_P1;PMS_P2;Temp;Humidity;BMP_temperature;BMP_pressure;BME280_temperature;BME280_humidity;BME280_pressure;Samples;Min_cycle;Max_cycle;Signal;HPM_P1;HPM_P2
2020/12/01 00:01:18;;;;;;;3.67;1.20;;;10.70;98.20;;;;;;7733361;28;20060;-77
2020/12/01 00:04:59;;;;;;;3.30;1.50;;;10.70;98.20;;;;;;7734324;28;20052;-75
2020/12/01 00:08:41;;;;;;;2.83;1.00;;;10.60;98.20;;;;;;7732250;28;20091;-76
2020/12/01 00:12:23;;;;;;;10.43;2.20;;;10.50;98.00;;;;;;7733623;28;20067;-77
2020/12/01 00:16:05;;;;;;;5.03;1.63;;;10.30;97.00;;;;;;7733196;28;20477;-76
2020/12/01 00:19:46;;;;;;;2.97;1.43;;;10.20;97.00;;;;;;7738500;28;20091;-77
2020/12/01 00:23:28;;;;;;;3.00;1.20;;;10.10;97.00;;;;;;7733596;28;20137;-77
2020/12/01 00:27:09;;;;;;;5.03;1.90;;;10.10;96.80;;;;;;7732679;28;20067;-79
2020/12/01 00:30:51;;;;;;;6.53;1.47;;;10.10;96.60;;;;;;7734089;28;20064;-75
2020/12/01 00:34:32;;;;;;;4.47;1.40;;;10.00;96.70;;;;;;7727847;28;20063;-76
2020/12/01 00:38:14;;;;;;;4.67;1.40;;;10.00;96.60;;;;;;7730791;28;20135;-76
2020/12/01 00:41:55;;;;;;;6.20;2.23;;;9.90;96.60;;;;;;7722711;28;20070;-76
2020/12/01 00:45:37;;;;;;;3.87;1.70;;;9.80;96.50;;;;;;7725913;28;20092;-76
2020/12/01 00:49:18;;;;;;;2.17;1.13;;;9.70;96.50;;;;;;7730488;28;20087;-75
2020/12/01 00:53:00;;;;;;;1.67;0.90;;;9.70;96.40;;;;;;7712508;28;20144;-75
2020/12/01 00:56:41;;;;;;;4.77;1.17;;;9.60;96.40;;;;;;7706098;28;20510;-76
2020/12/01 01:00:27;;;;;;;3.37;1.40;;;9.50;96.40;;;;;;7750454;28;20063;-75
2020/12/01 01:04:08;;;;;;;6.33;2.20;;;9.50;96.40;;;;;;7730165;28;20099;-76
2020/12/01 01:07:50;;;;;;;4.03;1.60;;;9.40;96.40;;;;;;7728446;28;20452;-76
2020/12/01 01:11:34;;;;;;;8.30;1.60;;;9.30;96.50;;;;;;7729237;28;20140;-76
2020/12/01 01:15:16;;;;;;;5.83;1.60;;;9.20;96.40;;;;;;7739118;28;20052;-75
2020/12/01 01:18:57;;;;;;;3.93;1.33;;;9.10;96.40;;;;;;7714341;28;20154;-76
2020/12/01 01:22:39;;;;;;;5.70;1.93;;;9.00;96.40;;;;;;7730306;28;20059;-75
2020/12/01 01:26:21;;;;;;;3.30;1.60;;;8.90;96.40;;;;;;7698584;28;20056;-76
2020/12/01 01:30:04;;;;;;;3.77;1.20;;;8.90;96.60;;;;;;7701845;28;20060;-82
2020/12/01 01:33:45;;;;;;;5.10;2.03;;;8.80;96.60;;;;;;7707189;28;20068;-76
2020/12/01 01:37:27;;;;;;;3.33;1.00;;;8.70;96.60;;;;;;7723584;28;20052;-76
2020/12/01 01:41:08;;;;;;;1.37;0.90;;;8.70;96.80;;;;;;7715489;28;20091;-76
2020/12/01 01:44:50;;;;;;;3.93;1.43;;;8.60;96.90;;;;;;7728303;28;20126;-75
2020/12/01 01:48:33;;;;;;;2.97;1.20;;;8.60;96.90;;;;;;7728759;28;20056;-75
2020/12/01 01:52:19;;;;;;;4.50;1.47;;;8.50;97.00;;;;;;7723717;28;20460;-75
2020/12/01 01:56:06;;;;;;;6.00;1.73;;;8.50;97.00;;;;;;7719937;28;20099;-75
2020/12/01 01:59:48;;;;;;;;;;;8.40;97.10;;;;;;7728082;28;20392;-80
2020/12/01 02:03:46;;;;;;;1.97;0.97;;;8.30;97.00;;;;;;7720363;28;19930;-76
2020/12/01 02:07:29;;;;;;;5.60;1.40;;;8.30;97.10;;;;;;7723326;28;20087;-76
2020/12/01 02:11:11;;;;;;;5.10;1.53;;;8.20;97.20;;;;;;7722448;28;20130;-77
2020/12/01 02:14:59;;;;;;;5.63;0.93;;;8.20;97.30;;;;;;7727555;28;20134;-76
2020/12/01 02:18:41;;;;;;;2.13;1.10;;;8.10;97.40;;;;;;7732387;28;20501;-76
2020/12/01 02:22:26;;;;;;;1.57;0.80;;;8.10;97.40;;;;;;7724472;28;20056;-77
2020/12/01 02:26:09;;;;;;;3.07;1.00;;;8.10;97.20;;;;;;7727982;28;20082;-76
2020/12/01 02:29:55;;;;;;;1.83;0.90;;;8.00;97.10;;;;;;7728843;28;20139;-75
2020/12/01 02:33:37;;;;;;;0.68;0.60;;;8.00;97.10;;;;;;7744843;28;20076;-74
2020/12/01 02:37:21;;;;;;;1.17;0.70;;;7.90;97.10;;;;;;7729673;28;20408;-75
2020/12/01 02:41:03;;;;;;;1.93;0.90;;;7.90;97.10;;;;;;7732549;28;20143;-75
2020/12/01 02:44:44;;;;;;;3.23;1.00;;;7.80;97.30;;;;;;7731046;28;20142;-75
2020/12/01 02:48:26;;;;;;;2.13;0.90;;;7.60;97.30;;;;;;7734470;28;20147;-74
2020/12/01 02:52:07;;;;;;;4.27;1.70;;;7.80;97.40;;;;;;7733219;28;20083;-75
2020/12/01 02:55:49;;;;;;;1.53;1.00;;;7.70;97.40;;;;;;7727699;28;20063;-78
2020/12/01 02:59:30;;;;;;;1.33;0.67;;;7.70;97.20;;;;;;7735552;28;20073;-74
2020/12/01 03:03:12;;;;;;;1.27;0.70;;;7.60;97.20;;;;;;7726867;28;20061;-75
2020/12/01 03:06:53;;;;;;;1.20;0.60;;;7.50;96.80;;;;;;7729819;28;20099;-74
2020/12/01 03:10:35;;;;;;;1.10;0.70;;;7.50;96.80;;;;;;7729963;28;20131;-74
2020/12/01 03:14:18;;;;;;;0.67;0.60;;;7.40;96.80;;;;;;7735938;28;20087;-74
2020/12/01 03:18:00;;;;;;;1.03;0.70;;;7.30;96.90;;;;;;7728294;28;20094;-76
2020/12/01 03:21:41;;;;;;;2.20;0.80;;;7.30;97.00;;;;;;7743182;28;20151;-75
2020/12/01 03:25:23;;;;;;;3.47;1.10;;;7.20;97.10;;;;;;7733743;28;20352;-75
2020/12/01 03:29:05;;;;;;;1.23;1.00;;;7.10;97.20;;;;;;7734698;28;20161;-75
2020/12/01 03:32:46;;;;;;;0.97;0.70;;;7.10;97.40;;;;;;7722920;28;20427;-75
2020/12/01 03:36:27;;;;;;;2.00;0.70;;;7.10;97.40;;;;;;7730732;28;20136;-77
2020/12/01 03:40:09;;;;;;;0.97;0.80;;;7.00;97.50;;;;;;7728351;28;20131;-76
2020/12/01 03:43:50;;;;;;;0.50;0.50;;;7.00;97.50;;;;;;7734171;28;20131;-75
2020/12/01 03:47:32;;;;;;;1.53;0.60;;;7.00;97.50;;;;;;7728704;28;20060;-75
2020/12/01 03:51:13;;;;;;;2.47;0.87;;;6.90;97.60;;;;;;7734604;28;20135;-74
2020/12/01 03:54:55;;;;;;;1.60;0.80;;;6.90;97.60;;;;;;7726524;28;20096;-77
2020/12/01 03:58:36;;;;;;;2.20;0.90;;;6.80;97.70;;;;;;7730487;28;20052;-76
2020/12/01 04:02:18;;;;;;;0.77;0.70;;;6.90;97.80;;;;;;7731748;28;20060;-75
2020/12/01 04:05:59;;;;;;;1.70;0.87;;;6.90;97.80;;;;;;7733858;28;20122;-75
2020/12/01 04:09:41;;;;;;;0.60;0.50;;;6.80;97.80;;;;;;7727677;28;20131;-84
2020/12/01 04:13:23;;;;;;;0.80;0.70;;;6.80;97.70;;;;;;7726606;28;20106;-75
2020/12/01 04:17:04;;;;;;;0.70;0.60;;;6.80;97.70;;;;;;7724119;28;20055;-75
2020/12/01 04:20:46;;;;;;;0.70;0.60;;;6.70;97.60;;;;;;7732990;28;20131;-74
2020/12/01 04:24:27;;;;;;;1.20;0.70;;;6.70;97.70;;;;;;7731924;28;20497;-74
2020/12/01 04:28:09;;;;;;;1.23;0.73;;;6.70;97.80;;;;;;7729089;28;20147;-76
2020/12/01 04:31:50;;;;;;;1.60;0.80;;;6.70;98.00;;;;;;7723394;28;20067;-77
2020/12/01 04:35:31;;;;;;;0.67;0.60;;;6.70;98.00;;;;;;7740460;28;20094;-76
2020/12/01 04:39:13;;;;;;;0.70;0.60;;;6.70;98.10;;;;;;7730092;28;20113;-76
2020/12/01 04:43:04;;;;;;;2.53;0.60;;;7.00;98.30;;;;;;7732582;28;20105;-76
2020/12/01 04:46:45;;;;;;;3.27;1.00;;;6.70;98.40;;;;;;7731276;28;20098;-74
2020/12/01 04:50:33;;;;;;;2.70;1.00;;;6.70;98.50;;;;;;7720213;28;20094;-77
2020/12/01 04:54:43;;;;;;;4.13;1.27;;;6.80;98.70;;;;;;7724193;28;20091;-77
2020/12/01 04:58:53;;;;;;;3.80;1.33;;;6.80;98.80;;;;;;7721155;28;20412;-76
2020/12/01 05:02:59;;;;;;;3.50;1.27;;;6.80;99.10;;;;;;7722702;28;20111;-77
2020/12/01 05:06:57;;;;;;;4.53;1.27;;;6.80;99.10;;;;;;7729552;28;20091;-74
2020/12/01 05:10:43;;;;;;;4.70;1.20;;;6.90;99.40;;;;;;7732317;28;20095;-74
2020/12/01 05:14:38;;;;;;;3.07;1.10;;;6.80;99.40;;;;;;7719352;28;20116;-76
2020/12/01 05:18:28;;;;;;;3.23;1.40;;;6.80;99.50;;;;;;7728410;28;20063;-74
2020/12/01 05:22:12;;;;;;;2.70;1.00;;;6.70;99.50;;;;;;7731856;28;20509;-74
2020/12/01 05:26:02;;;;;;;3.17;1.17;;;6.70;99.40;;;;;;7733918;28;20135;-75
2020/12/01 05:29:44;;;;;;;6.57;1.73;;;6.70;99.30;;;;;;7725178;28;20139;-82
2020/12/01 05:33:28;;;;;;;4.93;1.30;;;6.60;99.40;;;;;;7724082;28;20143;-76
2020/12/01 05:37:22;;;;;;;8.03;1.77;;;6.60;99.60;;;;;;7729984;28;20452;-76
2020/12/01 05:41:21;;;;;;;4.77;1.43;;;6.60;99.90;;;;;;7730085;28;20364;-74
2020/12/01 05:45:03;;;;;;;3.13;1.40;;;6.60;99.90;;;;;;7728345;28;20121;-77
2020/12/01 05:48:52;;;;;;;4.00;1.17;;;6.60;99.90;;;;;;7728348;28;20091;-76
2020/12/01 05:53:11;;;;;;;7.40;1.77;;;6.60;99.90;;;;;;7723515;28;20060;-74
2020/12/01 05:56:53;;;;;;;1.70;0.97;;;6.60;99.90;;;;;;7721994;28;20053;-76
2020/12/01 06:00:41;;;;;;;3.20;1.25;;;6.60;99.90;;;;;;7722008;28;20131;-76
2020/12/01 06:04:27;;;;;;;1.53;1.00;;;6.60;99.90;;;;;;7716810;28;20052;-76
2020/12/01 06:08:16;;;;;;;1.77;1.10;;;6.60;99.90;;;;;;7725518;28;20166;-73
2020/12/01 06:12:06;;;;;;;2.17;0.90;;;6.60;99.90;;;;;;7726194;28;20127;-76
2020/12/01 06:16:06;;;;;;;5.53;1.43;;;6.60;99.90;;;;;;7723027;28;20138;-77
2020/12/01 06:19:57;;;;;;;3.50;1.00;;;6.70;99.90;;;;;;7725729;28;20147;-74
2020/12/01 06:24:31;;;;;;;2.97;1.00;;;6.80;99.90;;;;;;7723057;28;20139;-76
2020/12/01 06:28:34;;;;;;;5.50;1.30;;;6.80;99.90;;;;;;7681534;28;20079;-76
2020/12/01 06:32:40;;;;;;;3.90;1.00;;;6.80;99.90;;;;;;7751339;28;20056;-76
2020/12/01 06:37:00;;;;;;;3.97;1.08;;;6.90;99.90;;;;;;7759732;28;20069;-78
2020/12/01 06:41:05;;;;;;;2.93;0.97;;;6.90;99.90;;;;;;7753453;28;20488;-76
2020/12/01 06:45:04;;;;;;;1.83;0.90;;;6.90;99.90;;;;;;7745768;28;20079;-77
2020/12/01 06:48:49;;;;;;;1.80;1.00;;;6.90;99.90;;;;;;7752447;28;20494;-77
2020/12/01 06:52:31;;;;;;;1.73;0.80;;;7.00;99.90;;;;;;7756873;28;20143;-76
2020/12/01 06:56:16;;;;;;;4.77;1.10;;;7.00;99.90;;;;;;7760122;28;20087;-77
2020/12/01 06:59:58;;;;;;;3.37;1.30;;;7.30;99.90;;;;;;7758499;28;20062;-77
2020/12/01 07:03:40;;;;;;;2.07;0.97;;;7.00;99.90;;;;;;7758953;28;20611;-76
2020/12/01 07:07:32;;;;;;;1.10;0.77;;;7.00;99.90;;;;;;7758003;28;20424;-78
2020/12/01 07:11:28;;;;;;;2.97;1.33;;;7.10;99.90;;;;;;7761103;28;20515;-77
2020/12/01 07:15:15;;;;;;;2.73;0.90;;;7.10;99.90;;;;;;7762301;28;20115;-76
2020/12/01 07:19:20;;;;;;;0.93;0.70;;;7.10;99.90;;;;;;7757146;28;20513;-77
2020/12/01 07:23:14;;;;;;;2.07;0.87;;;7.10;99.90;;;;;;7756167;28;20087;-76
2020/12/01 07:27:10;;;;;;;1.37;0.77;;;7.10;99.90;;;;;;7758925;28;20087;-76
2020/12/01 07:30:59;;;;;;;2.92;0.88;;;7.10;99.90;;;;;;7765080;27;20509;-76
2020/12/01 07:34:42;;;;;;;0.63;0.60;;;7.10;99.80;;;;;;7766929;27;20059;-77
2020/12/01 07:38:37;;;;;;;1.33;0.70;;;7.10;99.60;;;;;;7766623;27;20060;-77
2020/12/01 07:42:24;;;;;;;1.17;0.80;;;7.10;99.40;;;;;;7766536;27;20100;-75
2020/12/01 07:46:06;;;;;;;2.00;0.80;;;7.00;99.40;;;;;;7766752;27;20063;-77
2020/12/01 07:50:20;;;;;;;1.10;0.70;;;7.00;99.50;;;;;;7760862;27;20063;-76
2020/12/01 07:54:06;;;;;;;0.77;0.60;;;7.00;99.20;;;;;;7765984;27;20666;-76
2020/12/01 07:58:17;;;;;;;1.83;0.70;;;6.90;99.20;;;;;;7763004;27;20459;-75
2020/12/01 08:02:04;;;;;;;0.67;0.60;;;6.80;98.80;;;;;;7764827;27;20058;-75
2020/12/01 08:05:47;;;;;;;0.50;0.50;;;6.80;98.70;;;;;;7766094;27;20162;-80
2020/12/01 08:09:30;;;;;;;0.50;0.50;;;6.70;98.60;;;;;;7764757;28;20091;-76
2020/12/01 08:13:13;;;;;;;1.00;0.60;;;6.70;98.40;;;;;;7764531;28;20083;-74
2020/12/01 08:17:15;;;;;;;0.70;0.70;;;6.60;98.40;;;;;;7763821;28;20048;-76
2020/12/01 08:20:57;;;;;;;0.80;0.70;;;6.50;98.40;;;;;;7764500;28;20062;-75
2020/12/01 08:24:42;;;;;;;0.70;0.63;;;6.50;98.40;;;;;;7763140;28;20060;-79
2020/12/01 08:28:46;;;;;;;0.60;0.60;;;6.50;98.50;;;;;;7763691;28;20062;-76
2020/12/01 08:32:42;;;;;;;0.60;0.60;;;6.40;98.60;;;;;;7758212;28;20059;-77
2020/12/01 08:36:29;;;;;;;1.00;0.70;;;6.60;98.90;;;;;;7758409;28;20130;-75
2020/12/01 08:40:33;;;;;;;0.63;0.60;;;6.40;99.10;;;;;;7760923;28;20051;-75
2020/12/01 08:44:39;;;;;;;1.57;0.80;;;6.40;99.10;;;;;;7755072;28;20381;-75
2020/12/01 08:48:38;;;;;;;1.43;0.60;;;6.50;99.40;;;;;;7760108;28;20071;-75
2020/12/01 08:52:25;;;;;;;0.60;0.60;;;6.50;99.40;;;;;;7758409;28;20047;-75
2020/12/01 08:56:19;;;;;;;0.60;0.60;;;6.50;99.40;;;;;;7760533;28;20055;-76
2020/12/01 09:00:10;;;;;;;0.90;0.60;;;6.60;99.50;;;;;;7759878;28;20131;-74
2020/12/01 09:03:58;;;;;;;1.00;0.60;;;6.60;99.50;;;;;;7760667;28;20516;-77
2020/12/01 09:07:43;;;;;;;0.80;0.70;;;6.70;99.50;;;;;;7760633;28;20059;-75
2020/12/01 09:23:34;;;;;;;0.80;0.60;;;6.80;99.90;;;;;;7758477;27;20146;-75
2020/12/01 09:27:17;;;;;;;1.10;1.00;;;6.90;99.90;;;;;;7759638;28;20090;-74
2020/12/01 09:31:03;;;;;;;2.43;0.90;;;7.00;99.90;;;;;;7757298;28;20086;-74
2020/12/01 09:34:45;;;;;;;2.33;1.13;;;7.10;99.90;;;;;;7761575;28;20409;-73
2020/12/01 09:38:26;;;;;;;1.07;0.70;;;7.10;99.90;;;;;;7751140;28;20291;-75
2020/12/01 09:42:18;;;;;;;2.23;0.93;;;7.20;99.90;;;;;;7758107;28;20062;-74
2020/12/01 09:46:05;;;;;;;2.97;1.10;;;7.30;99.90;;;;;;7759733;28;20067;-74
2020/12/01 09:49:47;;;;;;;3.30;1.40;;;7.40;99.90;;;;;;7757890;28;20166;-75
2020/12/01 10:35:58;;;;;;;4.73;1.67;;;8.50;99.10;;;;;;7761521;28;20325;-74
2020/12/01 10:39:40;;;;;;;5.43;1.57;;;8.60;98.90;;;;;;7761372;28;20367;-74
2020/12/01 10:43:22;;;;;;;6.07;1.43;;;8.70;98.60;;;;;;7760348;28;20463;-75
2020/12/01 10:47:03;;;;;;;5.83;1.53;;;8.80;98.20;;;;;;7760736;28;20063;-75
2020/12/01 10:50:45;;;;;;;5.87;1.60;;;8.80;98.30;;;;;;7760952;28;20485;-74
2020/12/01 10:54:26;;;;;;;4.00;1.00;;;8.90;98.40;;;;;;7760983;28;20095;-76
2020/12/01 10:58:09;;;;;;;2.43;1.10;;;9.00;98.40;;;;;;7763604;28;20056;-75
2020/12/01 11:01:51;;;;;;;4.67;1.37;;;9.10;98.20;;;;;;7766248;28;20140;-75
2020/12/01 11:05:34;;;;;;;6.20;1.40;;;9.10;97.90;;;;;;7767335;28;20063;-76
2020/12/01 11:09:16;;;;;;;2.80;1.47;;;9.10;97.70;;;;;;7765906;28;20067;-76
2020/12/01 11:12:58;;;;;;;3.80;1.40;;;9.10;97.20;;;;;;7765189;28;20059;-76
2020/12/01 11:16:40;;;;;;;6.97;1.70;;;9.10;97.10;;;;;;7765569;28;20438;-76
2020/12/01 11:20:21;;;;;;;4.83;1.43;;;9.10;96.40;;;;;;7767418;28;20051;-76
2020/12/01 11:24:04;;;;;;;4.43;1.37;;;9.20;96.70;;;;;;7765716;28;20055;-75
2020/12/01 11:27:45;;;;;;;4.47;1.40;;;9.20;96.30;;;;;;7766008;28;20393;-78
2020/12/01 11:31:27;;;;;;;4.67;1.43;;;9.20;96.00;;;;;;7765371;28;20059;-75
2020/12/01 11:35:09;;;;;;;4.03;1.40;;;9.20;95.60;;;;;;7764760;28;20094;-74
2020/12/01 11:38:50;;;;;;;3.13;1.13;;;9.30;96.10;;;;;;7764488;28;20052;-75
2020/12/01 11:42:32;;;;;;;2.30;1.20;;;9.30;96.00;;;;;;7760592;28;20051;-75
2020/12/01 11:46:14;;;;;;;5.03;1.80;;;9.30;95.90;;;;;;7767106;28;20052;-84
2020/12/01 11:49:56;;;;;;;7.97;1.60;;;9.30;95.90;;;;;;7765967;28;20055;-75
2020/12/01 11:53:38;;;;;;;3.57;1.47;;;9.40;96.00;;;;;;7765664;28;20085;-78
2020/12/01 11:57:19;;;;;;;4.43;1.57;;;9.40;96.00;;;;;;7764105;28;20134;-79
2020/12/01 12:01:00;;;;;;;2.30;1.33;;;9.50;95.60;;;;;;7765842;28;20487;-81
2020/12/01 12:04:42;;;;;;;5.00;1.70;;;9.50;95.10;;;;;;7763717;28;20051;-74
2020/12/01 12:08:24;;;;;;;4.43;1.43;;;9.50;95.00;;;;;;7763947;28;20074;-83
2020/12/01 12:12:06;;;;;;;5.47;1.50;;;9.50;95.40;;;;;;7765938;28;20142;-78
2020/12/01 12:15:47;;;;;;;3.77;1.40;;;9.60;95.20;;;;;;7763772;28;20088;-77
2020/12/01 12:19:29;;;;;;;5.50;1.73;;;9.60;95.50;;;;;;7765446;28;20094;-83
2020/12/01 12:23:11;;;;;;;3.93;1.53;;;9.70;95.60;;;;;;7757913;28;20087;-85
2020/12/01 12:26:53;;;;;;;3.63;1.20;;;9.70;95.20;;;;;;7764460;28;20091;-83
2020/12/01 12:30:35;;;;;;;5.67;1.73;;;9.80;95.30;;;;;;7764741;28;20074;-77
2020/12/01 12:34:17;;;;;;;2.70;1.30;;;9.70;94.60;;;;;;7764649;28;20132;-86
2020/12/01 12:37:59;;;;;;;1.50;0.90;;;9.80;95.10;;;;;;7764163;28;20147;-80
2020/12/01 12:41:40;;;;;;;6.30;1.53;;;9.90;95.20;;;;;;7764081;28;20113;-85
2020/12/01 12:45:22;;;;;;;5.40;1.60;;;10.00;95.00;;;;;;7764782;28;20456;-82
2020/12/01 12:49:05;;;;;;;3.63;1.13;;;10.10;95.00;;;;;;7764583;28;20135;-84
2020/12/01 12:52:46;;;;;;;5.60;1.40;;;10.20;95.00;;;;;;7763467;28;20067;-86
2020/12/01 12:56:28;;;;;;;5.17;1.40;;;10.30;94.70;;;;;;7766811;27;20143;-83
2020/12/01 13:00:11;;;;;;;2.03;0.90;;;10.20;94.10;;;;;;7765673;27;20052;-84
2020/12/01 13:03:52;;;;;;;5.83;1.60;;;10.30;94.20;;;;;;7759289;27;20083;-81
2020/12/01 13:07:33;;;;;;;2.40;1.03;;;10.30;93.90;;;;;;7763512;27;20095;-79
2020/12/01 13:11:16;;;;;;;2.80;1.17;;;10.30;93.80;;;;;;7766641;27;20138;-76
2020/12/01 13:14:57;;;;;;;2.37;0.90;;;10.20;93.80;;;;;;7763327;27;20389;-75
2020/12/01 13:18:39;;;;;;;3.43;1.27;;;10.20;93.80;;;;;;7765095;27;20083;-75
2020/12/01 13:22:20;;;;;;;1.50;0.80;;;10.20;93.40;;;;;;7765039;27;20130;-83
2020/12/01 13:26:01;;;;;;;2.07;0.80;;;10.20;93.60;;;;;;7766307;27;20495;-79
2020/12/01 13:29:44;;;;;;;3.67;1.10;;;10.10;93.70;;;;;;7767087;27;20452;-76
2020/12/01 13:33:26;;;;;;;2.73;1.30;;;10.10;93.80;;;;;;7768317;27;20093;-77
2020/12/01 13:37:07;;;;;;;5.33;1.47;;;10.10;93.60;;;;;;7764814;27;20115;-76
2020/12/01 13:40:49;;;;;;;3.27;1.60;;;10.10;93.50;;;;;;7766281;27;20055;-76
2020/12/01 13:44:30;;;;;;;2.47;1.50;;;10.10;93.70;;;;;;7764796;27;20134;-83
2020/12/01 13:48:13;;;;;;;5.27;1.80;;;10.00;93.60;;;;;;7768429;27;20341;-76
2020/12/01 13:51:54;;;;;;;2.57;1.20;;;10.10;93.70;;;;;;7768645;27;20094;-79
2020/12/01 13:55:36;;;;;;;5.90;3.53;;;10.00;93.80;;;;;;7768930;27;20087;-83
2020/12/01 13:59:18;;;;;;;5.83;2.00;;;10.00;93.80;;;;;;7765012;28;20059;-80
2020/12/01 14:03:04;;;;;;;5.47;1.80;;;10.00;93.80;;;;;;7762543;27;20079;-76
2020/12/01 14:06:45;;;;;;;2.67;1.40;;;10.00;93.90;;;;;;7762902;28;20070;-79
2020/12/01 14:10:27;;;;;;;3.00;1.37;;;10.00;93.80;;;;;;7769858;27;20118;-77
2020/12/01 14:14:08;;;;;;;3.30;1.77;;;9.90;93.80;;;;;;7766398;27;20060;-79
2020/12/01 14:17:53;;;;;;;3.87;1.40;;;9.90;93.90;;;;;;7765478;27;20063;-83
2020/12/01 14:21:35;;;;;;;3.00;1.80;;;9.90;94.10;;;;;;7768644;28;20093;-76
2020/12/01 14:25:18;;;;;;;5.67;2.57;;;9.90;94.10;;;;;;7767953;28;20340;-82
2020/12/01 14:29:00;;;;;;;4.10;1.60;;;9.80;94.10;;;;;;7767555;28;20404;-77
2020/12/01 14:32:42;;;;;;;3.03;1.23;;;9.80;93.80;;;;;;7762970;27;20055;-82
2020/12/01 14:36:29;;;;;;;2.63;1.77;;;9.80;93.70;;;;;;7767887;27;20063;-83
2020/12/01 14:40:13;;;;;;;3.73;2.03;;;9.80;93.60;;;;;;7768585;27;20059;-82
2020/12/01 14:43:54;;;;;;;5.73;1.87;;;9.80;93.60;;;;;;7770358;27;20082;-81
2020/12/01 14:47:47;;;;;;;3.90;1.70;;;9.80;93.50;;;;;;7769864;27;20460;-79
2020/12/01 14:51:29;;;;;;;4.87;1.60;;;9.80;93.40;;;;;;7771506;27;20063;-81
2020/12/01 14:55:27;;;;;;;7.27;2.23;;;9.80;93.50;;;;;;7773867;27;20063;-78
2020/12/01 14:59:20;;;;;;;3.77;1.77;;;9.80;93.50;;;;;;7767341;27;20090;-80
2020/12/01 15:03:25;;;;;;;4.77;1.30;;;9.70;93.60;;;;;;7767493;27;20056;-81
2020/12/01 15:07:06;;;;;;;2.00;1.13;;;9.70;93.50;;;;;;7769376;27;20059;-77
2020/12/01 15:10:51;;;;;;;4.67;1.60;;;9.70;93.40;;;;;;7774065;27;20143;-77
2020/12/01 15:14:33;;;;;;;2.37;1.30;;;9.70;93.30;;;;;;7763142;27;20458;-78
2020/12/01 15:18:17;;;;;;;6.27;2.57;;;9.60;93.30;;;;;;7773526;27;20071;-82
2020/12/01 15:22:26;;;;;;;2.63;1.80;;;9.50;93.40;;;;;;7775581;27;20478;-84
2020/12/01 15:26:09;;;;;;;3.70;1.57;;;9.50;93.40;;;;;;7769499;27;20139;-80
2020/12/01 15:29:51;;;;;;;3.33;1.80;;;9.50;93.70;;;;;;7780532;27;20087;-81
2020/12/01 15:33:33;;;;;;;3.03;1.50;;;9.50;93.80;;;;;;7774639;27;20060;-79
2020/12/01 15:37:18;;;;;;;4.10;1.80;;;9.40;93.80;;;;;;7769258;27;20083;-83
2020/12/01 15:41:03;;;;;;;5.37;1.30;;;9.50;93.90;;;;;;7763999;27;20051;-79
2020/12/01 15:44:45;;;;;;;1.23;0.90;;;9.40;93.90;;;;;;7766816;27;20122;-80
2020/12/01 15:48:29;;;;;;;3.77;1.07;;;9.50;94.10;;;;;;7768397;27;20063;-83
2020/12/01 15:52:46;;;;;;;2.63;0.90;;;9.50;94.00;;;;;;7764413;27;20113;-81
2020/12/01 15:56:52;;;;;;;3.00;1.20;;;9.50;93.60;;;;;;7762222;27;20056;-78
2020/12/01 16:01:08;;;;;;;1.58;0.93;;;9.40;93.50;;;;;;7763730;27;20059;-75
2020/12/01 16:05:17;;;;;;;1.17;0.90;;;9.40;93.40;;;;;;7758501;27;20083;-78
2020/12/01 16:09:10;;;;;;;1.40;0.83;;;9.20;93.60;;;;;;7760076;27;20357;-82
2020/12/01 16:13:10;;;;;;;2.57;1.83;;;9.20;93.60;;;;;;7757055;28;20401;-75
2020/12/01 16:17:13;;;;;;;2.83;1.70;;;9.10;93.70;;;;;;7758565;27;20067;-78
2020/12/01 16:21:19;;;;;;;3.17;1.77;;;9.00;93.80;;;;;;7760481;27;20090;-76
2020/12/01 16:25:01;;;;;;;3.30;1.58;;;9.00;93.80;;;;;;7762230;27;20157;-75
2020/12/01 16:28:43;;;;;;;2.43;0.93;;;8.90;94.00;;;;;;7765972;27;20475;-76
2020/12/01 16:32:27;;;;;;;3.87;1.20;;;8.90;94.10;;;;;;7768685;27;20404;-84
2020/12/01 16:36:11;;;;;;;1.47;1.03;;;8.90;94.20;;;;;;7768464;27;20448;-76
2020/12/01 16:40:24;;;;;;;3.00;1.20;;;8.90;94.40;;;;;;7764125;27;20056;-84
2020/12/01 16:44:28;;;;;;;2.33;1.03;;;9.00;94.40;;;;;;7766248;27;20052;-76
2020/12/01 16:48:13;;;;;;;3.63;1.10;;;9.00;94.50;;;;;;7774778;27;20056;-75
2020/12/01 16:51:59;;;;;;;4.57;1.67;;;9.00;94.50;;;;;;7763885;27;20063;-83
2020/12/01 16:56:07;;;;;;;2.88;1.35;;;9.00;94.40;;;;;;7763874;27;20344;-77
2020/12/01 17:00:10;;;;;;;4.73;2.40;;;9.00;94.20;;;;;;7762865;27;20440;-75
2020/12/01 17:04:26;;;;;;;4.87;2.80;;;8.90;94.40;;;;;;7769842;27;20082;-75
2020/12/01 17:08:10;;;;;;;9.77;3.10;;;8.80;94.20;;;;;;7767431;27;20056;-76
2020/12/01 17:12:20;;;;;;;4.30;2.50;;;8.80;94.40;;;;;;7770903;27;20055;-75
2020/12/01 17:16:29;;;;;;;4.43;2.70;;;8.70;94.30;;;;;;7782523;27;20066;-75
2020/12/01 17:20:11;;;;;;;3.47;1.90;;;8.60;94.40;;;;;;7766853;27;20066;-75
2020/12/01 17:23:54;;;;;;;3.80;2.13;;;8.50;94.80;;;;;;7771215;27;20091;-75
2020/12/01 17:27:36;;;;;;;2.63;1.73;;;8.50;94.90;;;;;;7769489;27;20455;-75
2020/12/01 17:31:54;;;;;;;5.37;2.17;;;8.50;95.00;;;;;;7764703;27;20343;-75
2020/12/01 17:35:48;;;;;;;4.83;2.50;;;8.50;95.10;;;;;;7767420;27;20059;-75
2020/12/01 17:39:54;;;;;;;3.83;2.40;;;8.60;95.40;;;;;;7765085;27;20132;-75
2020/12/01 17:43:50;;;;;;;2.70;1.77;;;8.70;95.50;;;;;;7769842;27;20162;-75
2020/12/01 17:47:40;;;;;;;3.40;2.10;;;8.80;95.40;;;;;;7769248;27;20107;-75
2020/12/01 17:51:29;;;;;;;4.20;2.67;;;8.80;95.30;;;;;;7768457;27;20056;-76
2020/12/01 17:55:12;;;;;;;6.60;3.23;;;8.80;95.30;;;;;;7758654;27;20189;-75
2020/12/01 17:58:59;;;;;;;4.07;2.67;;;8.90;95.20;;;;;;7769134;27;20423;-76
2020/12/01 18:02:41;;;;;;;5.80;2.80;;;8.90;95.10;;;;;;7762855;27;20073;-83
2020/12/01 18:06:23;;;;;;;4.33;2.03;;;8.90;95.00;;;;;;7755428;27;20095;-75
2020/12/01 18:10:04;;;;;;;5.13;1.90;;;9.00;95.00;;;;;;7771994;27;20099;-76
2020/12/01 18:14:00;;;;;;;4.30;2.30;;;9.00;95.00;;;;;;7766769;27;20144;-76
2020/12/01 18:18:17;;;;;;;3.13;1.70;;;9.00;94.80;;;;;;7758859;28;20055;-74
2020/12/01 18:22:10;;;;;;;5.10;2.78;;;9.00;94.80;;;;;;7774162;28;20470;-74
2020/12/01 18:26:16;;;;;;;2.70;1.70;;;9.00;94.90;;;;;;7773655;28;20633;-77
2020/12/01 18:30:12;;;;;;;5.13;3.10;;;9.00;95.00;;;;;;7762422;28;20060;-74
2020/12/01 18:34:30;;;;;;;4.60;2.03;;;9.00;95.10;;;;;;7767687;28;20067;-76
2020/12/01 18:38:16;;;;;;;3.90;2.27;;;9.10;94.90;;;;;;7782825;28;20440;-75
2020/12/01 18:41:58;;;;;;;4.15;2.67;;;9.10;95.10;;;;;;7769544;28;20122;-76
2020/12/01 18:45:49;;;;;;;5.80;3.00;;;9.00;95.00;;;;;;7782929;28;20073;-75
2020/12/01 18:49:30;;;;;;;5.13;2.60;;;9.10;95.00;;;;;;7758947;28;20059;-75
2020/12/01 18:53:16;;;;;;;4.87;2.60;;;9.00;95.00;;;;;;7756992;28;20121;-76
2020/12/01 18:56:57;;;;;;;5.53;2.83;;;9.10;95.00;;;;;;7751723;28;20102;-75
2020/12/01 19:00:40;;;;;;;5.53;3.00;;;9.00;94.90;;;;;;7777196;28;20142;-76
2020/12/01 19:04:21;;;;;;;7.27;3.93;;;9.00;94.90;;;;;;7761487;28;20099;-76
2020/12/01 19:08:04;;;;;;;6.17;2.83;;;9.00;94.80;;;;;;7758929;28;20138;-73
2020/12/01 19:11:56;;;;;;;4.90;2.90;;;9.00;94.90;;;;;;7757227;28;20408;-74
2020/12/01 19:15:38;;;;;;;6.40;2.97;;;9.10;94.90;;;;;;7760480;28;20150;-74
2020/12/01 19:19:19;;;;;;;5.40;2.90;;;9.00;95.00;;;;;;7747747;27;20055;-74
2020/12/01 19:23:01;;;;;;;7.97;3.40;;;9.00;95.00;;;;;;7766360;27;20051;-73
2020/12/01 19:26:43;;;;;;;9.93;4.67;;;9.00;95.00;;;;;;7765825;27;20147;-74
2020/12/01 19:30:25;;;;;;;7.97;5.03;;;9.00;95.00;;;;;;7765719;27;20079;-75
2020/12/01 19:34:07;;;;;;;7.33;3.77;;;9.00;95.10;;;;;;7769655;27;20056;-72
2020/12/01 19:37:49;;;;;;;5.40;3.17;;;9.00;95.10;;;;;;7777910;27;20392;-75
2020/12/01 19:41:30;;;;;;;4.03;2.60;;;9.00;95.20;;;;;;7789521;27;20055;-77
2020/12/01 19:45:13;;;;;;;4.40;2.40;;;9.00;95.20;;;;;;7775282;27;20485;-77
2020/12/01 19:48:54;;;;;;;3.17;1.90;;;9.00;95.20;;;;;;7788837;27;20094;-83
2020/12/01 19:52:46;;;;;;;5.47;2.17;;;9.10;95.30;;;;;;7769860;27;20051;-82
2020/12/01 19:56:29;;;;;;;4.07;2.43;;;9.10;95.30;;;;;;7764261;27;20130;-83
2020/12/01 20:00:25;;;;;;;3.73;2.33;;;9.10;95.30;;;;;;7753422;27;20082;-79
2020/12/01 20:04:07;;;;;;;4.00;2.05;;;9.10;95.30;;;;;;7763154;28;20060;-80
2020/12/01 20:07:49;;;;;;;3.87;2.17;;;9.10;95.30;;;;;;7774463;27;20059;-85
2020/12/01 20:11:31;;;;;;;6.80;3.30;;;9.10;95.30;;;;;;7769653;27;20051;-86
2020/12/01 20:15:12;;;;;;;8.07;3.23;;;9.10;95.20;;;;;;7782287;27;20059;-87
2020/12/01 20:18:54;;;;;;;7.03;3.23;;;9.20;95.20;;;;;;7765310;27;20067;-87
2020/12/01 20:22:37;;;;;;;5.27;2.80;;;9.20;95.20;;;;;;7772373;27;20052;-86
2020/12/01 20:26:20;;;;;;;5.70;2.70;;;9.20;95.20;;;;;;7774456;27;20091;-86
2020/12/01 20:30:05;;;;;;;5.33;2.97;;;9.20;95.20;;;;;;7773757;27;20055;-79
2020/12/01 20:33:47;;;;;;;3.40;2.10;;;9.20;95.20;;;;;;7773254;27;20051;-81
2020/12/01 20:37:53;;;;;;;6.40;3.00;;;9.20;95.30;;;;;;7777918;27;20083;-79
2020/12/01 20:41:35;;;;;;;5.93;3.47;;;9.30;95.20;;;;;;7778854;27;20081;-82
2020/12/01 20:45:18;;;;;;;3.63;2.27;;;9.30;95.30;;;;;;7772950;27;20073;-79
2020/12/01 20:48:59;;;;;;;3.43;2.27;;;9.30;95.40;;;;;;7763217;28;20460;-79